createdAt,value
2022-12-20T00:01:14.228Z,34.78
2022-12-20T00:08:30.979Z,35.63
2022-12-20T00:11:01.354Z,37.10
2022-12-20T00:13:32.792Z,37.28
2022-12-20T00:16:11.536Z,36.70
2022-12-20T00:18:40.879Z,36.35
2022-12-20T00:21:11.839Z,36.65
2022-12-20T00:23:40.953Z,37.00
2022-12-20T00:26:19.877Z,37.03
2022-12-20T00:28:48.528Z,36.70
2022-12-20T00:31:18.202Z,35.58
2022-12-20T00:33:47.788Z,36.70
2022-12-20T00:37:16.839Z,37.28
2022-12-20T00:39:47.593Z,35.45
2022-12-20T00:43:23.109Z,37.15
2022-12-20T00:47:07.865Z,36.17
2022-12-20T00:49:33.098Z,35.53
2022-12-20T00:52:00.764Z,37.35
2022-12-20T00:54:41.405Z,36.05
2022-12-20T00:57:27.382Z,35.50
2022-12-20T01:04:06.241Z,36.85
2022-12-20T01:06:35.263Z,36.38
2022-12-20T01:09:02.866Z,37.58
2022-12-20T01:11:33.533Z,36.85
2022-12-20T01:17:32.859Z,35.92
2022-12-20T01:20:00.693Z,36.92
2022-12-20T01:22:28.454Z,36.42
2022-12-20T01:28:29.678Z,37.13
2022-12-20T01:30:57.691Z,37.20
2022-12-20T01:33:25.302Z,36.50
2022-12-20T01:36:00.403Z,36.33
2022-12-20T01:42:37.629Z,39.55
2022-12-20T01:45:09.143Z,41.10
2022-12-20T01:48:19.178Z,40.08
2022-12-20T01:50:48.165Z,38.35
2022-12-20T01:53:18.276Z,38.28
2022-12-20T01:55:47.950Z,36.53
2022-12-20T01:58:20.096Z,36.28
2022-12-20T02:00:48.095Z,37.38
2022-12-20T02:04:15.094Z,35.95
2022-12-20T02:07:31.187Z,35.30
2022-12-20T02:10:01.037Z,36.40
2022-12-20T02:12:45.533Z,33.58
2022-12-20T02:19:21.396Z,34.00
2022-12-20T02:22:04.198Z,35.88
2022-12-20T02:24:43.570Z,34.50
2022-12-20T02:27:52.772Z,35.92
2022-12-20T02:30:22.995Z,35.28
2022-12-20T02:33:03.696Z,34.42
2022-12-20T02:35:34.507Z,35.65
2022-12-20T02:38:30.178Z,34.90
2022-12-20T02:41:07.310Z,35.17
2022-12-20T02:43:58.197Z,35.05
2022-12-20T02:46:27.594Z,35.13
2022-12-20T02:49:50.161Z,35.55
2022-12-20T02:52:31.251Z,34.20
2022-12-20T02:55:03.206Z,34.38
2022-12-20T02:58:14.000Z,35.70
2022-12-20T03:00:48.864Z,33.92
2022-12-20T03:03:23.011Z,35.25
2022-12-20T03:09:52.848Z,33.95
2022-12-20T03:12:28.801Z,35.78
2022-12-20T03:14:56.437Z,33.85
2022-12-20T03:17:24.220Z,34.95
2022-12-20T03:20:19.409Z,36.33
2022-12-20T03:22:47.056Z,36.15
2022-12-20T03:25:15.043Z,35.33
2022-12-20T03:31:08.391Z,34.80
2022-12-20T03:33:44.452Z,36.03
2022-12-20T03:36:12.648Z,34.75
2022-12-20T03:38:40.687Z,35.08
2022-12-20T03:41:09.013Z,35.55
2022-12-20T03:43:36.625Z,35.85
2022-12-20T03:46:29.932Z,35.20
2022-12-20T03:48:58.412Z,35.65
2022-12-20T03:51:27.976Z,34.70
2022-12-20T03:57:27.424Z,36.90
2022-12-20T03:59:57.384Z,35.85
2022-12-20T04:02:50.267Z,35.72
2022-12-20T04:05:18.649Z,35.72
2022-12-20T04:08:57.884Z,36.08
2022-12-20T04:11:30.896Z,33.75
2022-12-20T04:14:14.155Z,34.50
2022-12-20T04:16:44.525Z,33.50
2022-12-20T04:19:12.513Z,35.45
2022-12-20T04:21:44.242Z,33.42
2022-12-20T04:24:12.692Z,34.13
2022-12-20T04:27:07.775Z,34.03
2022-12-20T04:29:35.525Z,33.83
2022-12-20T04:32:06.165Z,34.08
2022-12-20T04:34:33.982Z,34.53
2022-12-20T04:37:01.941Z,34.13
2022-12-20T04:39:39.715Z,34.83
2022-12-20T04:43:30.371Z,34.05
2022-12-20T04:50:33.525Z,35.00
2022-12-20T04:53:19.859Z,34.53
2022-12-20T04:55:48.352Z,33.60
2022-12-20T04:58:55.751Z,34.40
2022-12-20T05:01:24.063Z,33.25
2022-12-20T05:04:55.519Z,34.17
2022-12-20T05:08:16.810Z,34.85
2022-12-20T05:10:44.774Z,33.80
2022-12-20T05:13:14.005Z,6.28
2022-12-20T05:15:46.879Z,37.08
2022-12-20T05:18:14.627Z,35.97
2022-12-20T05:21:21.804Z,35.22
2022-12-20T05:24:20.683Z,36.00
2022-12-20T05:27:30.606Z,36.15
2022-12-20T05:29:58.659Z,35.97
2022-12-20T05:32:28.744Z,36.20
2022-12-20T05:35:31.026Z,35.90
2022-12-20T05:38:06.915Z,38.00
2022-12-20T05:40:37.667Z,36.70
2022-12-20T05:43:06.359Z,38.33
2022-12-20T05:45:48.520Z,38.22
2022-12-20T05:48:20.699Z,39.88
2022-12-20T05:51:39.746Z,38.17
2022-12-20T05:55:08.121Z,39.97
2022-12-20T05:58:51.804Z,39.05
2022-12-20T06:02:02.592Z,37.95
2022-12-20T06:04:38.701Z,38.88
2022-12-20T06:07:40.904Z,38.25
2022-12-20T06:10:09.693Z,36.75
2022-12-20T06:12:51.619Z,37.28
2022-12-20T06:15:19.521Z,34.75
2022-12-20T06:22:08.871Z,39.30
2022-12-20T06:24:48.595Z,40.03
2022-12-20T06:27:21.591Z,39.72
2022-12-20T06:29:55.715Z,41.28
2022-12-20T06:32:26.959Z,41.22
2022-12-20T06:34:55.492Z,45.13
2022-12-20T06:37:23.281Z,44.85
2022-12-20T06:39:51.047Z,47.67
2022-12-20T06:42:18.683Z,47.08
2022-12-20T06:44:47.279Z,47.33
2022-12-20T06:47:15.900Z,50.08
2022-12-20T06:49:43.499Z,50.28
2022-12-20T06:52:19.177Z,48.95
2022-12-20T06:54:49.877Z,46.05
2022-12-20T06:57:17.463Z,44.88
2022-12-20T06:59:47.957Z,44.63
2022-12-20T07:02:15.829Z,44.35
2022-12-20T07:04:43.560Z,43.60
2022-12-20T07:07:13.356Z,43.03
2022-12-20T07:09:41.638Z,43.50
2022-12-20T07:12:10.056Z,44.90
2022-12-20T07:14:37.824Z,44.17
2022-12-20T07:17:05.998Z,44.78
2022-12-20T07:19:34.293Z,42.75
2022-12-20T07:22:02.663Z,43.45
2022-12-20T07:24:30.354Z,42.13
2022-12-20T07:26:58.437Z,41.85
2022-12-20T07:29:25.969Z,41.40
2022-12-20T07:31:53.677Z,40.72
2022-12-20T07:34:21.492Z,42.00
2022-12-20T07:36:48.994Z,41.50
2022-12-20T07:39:16.844Z,40.60
2022-12-20T07:41:45.072Z,40.67
2022-12-20T07:44:16.902Z,40.33
2022-12-20T07:46:44.371Z,38.38
2022-12-20T07:49:11.904Z,40.30
2022-12-20T07:51:43.982Z,41.25
2022-12-20T07:54:19.579Z,39.33
2022-12-20T07:59:20.512Z,41.35
2022-12-20T08:01:49.103Z,40.78
2022-12-20T08:04:21.195Z,42.55
2022-12-20T08:06:50.771Z,41.22
2022-12-20T08:09:19.304Z,41.45
2022-12-20T08:11:49.279Z,40.58
2022-12-20T08:14:18.573Z,40.30
2022-12-20T08:16:46.641Z,39.75
2022-12-20T08:19:14.252Z,39.70
2022-12-20T08:21:41.747Z,40.00
2022-12-20T08:24:09.375Z,37.47
2022-12-20T08:26:41.869Z,37.40
2022-12-20T08:29:09.509Z,43.17
2022-12-20T08:31:49.475Z,38.95
2022-12-20T08:34:18.343Z,39.85
2022-12-20T08:36:45.811Z,39.65
2022-12-20T08:39:13.321Z,40.58
2022-12-20T08:41:40.849Z,38.72
2022-12-20T08:44:09.577Z,40.33
2022-12-20T08:46:55.358Z,41.08
2022-12-20T08:49:22.865Z,40.78
2022-12-20T08:51:50.494Z,42.00
2022-12-20T08:54:18.020Z,41.30
2022-12-20T08:56:45.527Z,44.17
2022-12-20T08:59:13.104Z,45.20
2022-12-20T09:01:40.868Z,43.75
2022-12-20T09:04:10.915Z,44.92
2022-12-20T09:06:39.242Z,43.75
2022-12-20T09:09:07.575Z,44.63
2022-12-20T09:11:35.129Z,47.83
2022-12-20T09:14:03.286Z,45.78
2022-12-20T09:16:33.271Z,45.15
2022-12-20T09:19:05.446Z,45.50
2022-12-20T09:21:34.559Z,45.97
2022-12-20T09:24:02.086Z,45.78
2022-12-20T09:26:30.746Z,46.85
2022-12-20T09:28:59.189Z,47.17
2022-12-20T09:31:27.302Z,46.70
2022-12-20T09:33:59.208Z,46.28
2022-12-20T09:36:29.153Z,47.60
2022-12-20T09:38:57.585Z,45.88
2022-12-20T09:41:31.839Z,46.53
2022-12-20T09:44:01.179Z,46.83
2022-12-20T09:46:28.860Z,46.05
2022-12-20T09:48:57.716Z,45.58
2022-12-20T09:51:44.338Z,44.45
2022-12-20T09:54:20.670Z,45.30
2022-12-20T09:57:17.235Z,44.75
2022-12-20T09:59:50.039Z,45.33
2022-12-20T10:02:55.736Z,44.42
2022-12-20T10:05:24.751Z,43.85
2022-12-20T10:08:09.238Z,43.92
2022-12-20T10:10:55.590Z,42.60
2022-12-20T10:13:29.152Z,40.65
2022-12-20T10:16:27.721Z,41.17
2022-12-20T10:19:02.104Z,42.00
2022-12-20T10:21:56.770Z,42.22
2022-12-20T10:24:35.109Z,43.05
2022-12-20T10:27:13.407Z,42.10
2022-12-20T10:29:41.665Z,41.13
2022-12-20T10:32:18.781Z,39.42
2022-12-20T10:34:55.281Z,40.40
2022-12-20T10:37:22.930Z,40.33
2022-12-20T10:39:52.142Z,41.10
2022-12-20T10:42:28.730Z,41.22
2022-12-20T10:44:57.915Z,40.35
2022-12-20T10:47:45.654Z,40.92
2022-12-20T10:50:25.070Z,41.17
2022-12-20T10:53:22.930Z,40.67
2022-12-20T10:55:51.930Z,40.55
2022-12-20T10:58:22.296Z,40.72
2022-12-20T11:00:49.927Z,40.97
2022-12-20T11:03:22.821Z,39.92
2022-12-20T11:05:59.665Z,39.72
2022-12-20T11:08:42.746Z,38.58
2022-12-20T11:11:22.091Z,39.05
2022-12-20T11:13:51.466Z,39.28
2022-12-20T11:16:38.098Z,38.38
2022-12-20T11:19:29.276Z,40.20
2022-12-20T11:22:08.038Z,40.47
2022-12-20T11:25:23.248Z,39.00
2022-12-20T11:28:21.379Z,41.05
2022-12-20T11:31:04.300Z,39.42
2022-12-20T11:33:41.313Z,38.72
2022-12-20T11:36:25.722Z,39.20
2022-12-20T11:39:01.550Z,39.83
2022-12-20T11:41:56.499Z,38.58
2022-12-20T11:45:03.283Z,40.17
2022-12-20T11:47:36.116Z,40.33
2022-12-20T11:50:44.655Z,39.05
2022-12-20T11:53:39.266Z,55.33
2022-12-20T11:56:21.620Z,52.60
2022-12-20T11:59:01.117Z,68.28
2022-12-20T12:01:41.371Z,58.55
2022-12-20T12:04:17.532Z,259.60
2022-12-20T12:06:52.197Z,133.07
2022-12-20T12:09:36.844Z,97.60
2022-12-20T12:12:39.524Z,40.97
2022-12-20T12:15:16.235Z,35.85
2022-12-20T12:18:03.022Z,35.45
2022-12-20T12:23:05.827Z,48.42
2022-12-20T12:25:33.461Z,41.67
2022-12-20T12:28:01.219Z,42.80
2022-12-20T12:30:36.416Z,44.80
2022-12-20T12:33:23.961Z,44.65
2022-12-20T12:36:03.949Z,48.67
2022-12-20T12:38:44.387Z,47.80
2022-12-20T12:41:39.520Z,45.72
2022-12-20T12:44:19.150Z,44.15
2022-12-20T12:46:53.855Z,63.50
2022-12-20T12:49:24.928Z,44.23
2022-12-20T12:51:55.886Z,45.22
2022-12-20T12:54:37.618Z,43.55
2022-12-20T12:57:14.586Z,43.60
2022-12-20T12:59:48.395Z,44.97
2022-12-20T13:02:16.724Z,45.00
2022-12-20T13:04:53.420Z,45.10
2022-12-20T13:07:32.912Z,43.35
2022-12-20T13:10:03.342Z,42.45
2022-12-20T13:12:36.696Z,44.03
2022-12-20T13:15:22.428Z,43.53
2022-12-20T13:17:55.129Z,42.50
2022-12-20T13:20:24.294Z,43.95
2022-12-20T13:23:12.905Z,44.35
2022-12-20T13:25:47.994Z,46.47
2022-12-20T13:28:24.432Z,42.22
2022-12-20T13:30:58.082Z,43.65
2022-12-20T13:33:45.410Z,42.58
2022-12-20T13:36:12.941Z,46.08
2022-12-20T13:38:43.270Z,47.33
2022-12-20T13:41:36.577Z,53.67
2022-12-20T13:44:16.002Z,53.60
2022-12-20T13:47:12.539Z,47.35
2022-12-20T13:49:41.635Z,45.47
2022-12-20T13:52:32.487Z,79.38
2022-12-20T13:55:08.137Z,50.13
2022-12-20T13:57:45.001Z,48.20
2022-12-20T14:00:25.559Z,45.95
2022-12-20T14:02:54.630Z,45.97
2022-12-20T14:05:42.541Z,47.28
2022-12-20T14:08:16.040Z,47.60
2022-12-20T14:10:43.538Z,46.05
2022-12-20T14:13:21.004Z,47.35
2022-12-20T14:15:49.293Z,48.70
2022-12-20T14:18:24.820Z,49.83
2022-12-20T14:20:59.240Z,48.13
2022-12-20T14:23:37.925Z,48.83
2022-12-20T14:26:07.564Z,47.47
2022-12-20T14:28:45.513Z,48.78
2022-12-20T14:31:48.975Z,49.38
2022-12-20T14:34:26.010Z,48.13
2022-12-20T14:37:17.775Z,46.00
2022-12-20T14:40:11.376Z,47.33
2022-12-20T14:42:40.257Z,49.58
2022-12-20T14:45:10.397Z,49.90
2022-12-20T14:47:47.868Z,50.03
2022-12-20T14:50:27.953Z,50.03
2022-12-20T14:52:56.735Z,51.05
2022-12-20T14:55:33.732Z,49.13
2022-12-20T14:58:01.875Z,49.55
2022-12-20T15:00:32.125Z,50.47
2022-12-20T15:03:02.327Z,49.50
2022-12-20T15:05:36.361Z,50.55
2022-12-20T15:08:16.806Z,50.38
2022-12-20T15:11:09.081Z,57.20
2022-12-20T15:13:39.754Z,52.20
2022-12-20T15:16:19.964Z,52.92
2022-12-20T15:18:49.254Z,49.60
2022-12-20T15:21:48.824Z,51.03
2022-12-20T15:24:19.911Z,49.97
2022-12-20T15:26:49.262Z,49.00
2022-12-20T15:29:21.366Z,49.40
2022-12-20T15:31:50.073Z,48.45
2022-12-20T15:34:29.327Z,49.22
2022-12-20T15:37:00.175Z,47.22
2022-12-20T15:39:28.123Z,50.95
2022-12-20T15:41:56.406Z,50.13
2022-12-20T15:44:26.858Z,50.08
2022-12-20T15:46:55.009Z,49.30
2022-12-20T15:49:28.047Z,50.28
2022-12-20T15:51:56.248Z,50.10
2022-12-20T15:54:27.403Z,49.10
2022-12-20T15:56:57.694Z,51.03
2022-12-20T15:59:58.317Z,47.97
2022-12-20T16:02:22.651Z,49.85
2022-12-20T16:04:51.193Z,49.67
2022-12-20T16:07:18.870Z,49.00
2022-12-20T16:09:46.511Z,49.08
2022-12-20T16:12:18.635Z,49.72
2022-12-20T16:14:46.251Z,50.40
2022-12-20T16:17:14.628Z,49.88
2022-12-20T16:19:45.143Z,49.83
2022-12-20T16:22:18.309Z,51.05
2022-12-20T16:24:46.344Z,48.47
2022-12-20T16:27:13.973Z,50.25
2022-12-20T16:29:41.734Z,48.50
2022-12-20T16:32:20.079Z,50.58
2022-12-20T16:34:49.521Z,49.08
2022-12-20T16:37:17.481Z,50.75
2022-12-20T16:39:45.063Z,49.28
2022-12-20T16:42:17.720Z,55.60
2022-12-20T16:44:46.308Z,53.40
2022-12-20T16:47:14.974Z,51.33
2022-12-20T16:49:49.666Z,52.95
2022-12-20T16:52:20.007Z,51.22
2022-12-20T16:54:47.542Z,50.15
2022-12-20T16:57:15.008Z,53.33
2022-12-20T16:59:42.364Z,51.10
2022-12-20T17:02:27.552Z,51.33
2022-12-20T17:04:55.424Z,52.83
2022-12-20T17:07:23.035Z,51.10
2022-12-20T17:09:50.502Z,52.63
2022-12-20T17:12:20.737Z,51.80
2022-12-20T17:14:48.997Z,51.45
2022-12-20T17:17:17.481Z,51.05
2022-12-20T17:19:45.077Z,52.92
2022-12-20T17:24:58.235Z,51.28
2022-12-20T17:27:26.303Z,52.47
2022-12-20T17:29:53.946Z,52.08
2022-12-20T17:32:24.561Z,51.72
2022-12-20T17:34:53.634Z,53.67
2022-12-20T17:37:21.887Z,53.25
2022-12-20T17:39:49.461Z,53.42
2022-12-20T17:42:17.264Z,50.42
2022-12-20T17:44:46.384Z,51.63
2022-12-20T17:47:16.489Z,53.75
2022-12-20T17:49:44.082Z,51.10
2022-12-20T17:52:15.602Z,53.05
2022-12-20T17:54:43.195Z,51.47
2022-12-20T17:57:19.211Z,51.35
2022-12-20T17:59:47.402Z,52.25
2022-12-20T18:02:23.573Z,52.05
2022-12-20T18:04:51.945Z,52.20
2022-12-20T18:07:19.708Z,53.53
2022-12-20T18:09:48.288Z,51.78
2022-12-20T18:12:17.028Z,54.22
2022-12-20T18:14:45.077Z,56.90
2022-12-20T18:17:14.078Z,56.47
2022-12-20T18:19:51.745Z,56.13
2022-12-20T18:22:19.972Z,55.20
2022-12-20T18:24:47.486Z,55.08
2022-12-20T18:27:15.067Z,54.78
2022-12-20T18:29:43.381Z,54.90
2022-12-20T18:32:11.180Z,56.55
2022-12-20T18:34:39.248Z,53.70
2022-12-20T18:37:06.886Z,54.20
2022-12-20T18:39:34.391Z,53.47
2022-12-20T18:42:02.001Z,53.47
2022-12-20T18:44:29.564Z,52.72
2022-12-20T18:46:57.136Z,53.65
2022-12-20T18:49:24.730Z,55.30
2022-12-20T18:51:52.216Z,54.10
2022-12-20T18:54:19.765Z,56.88
2022-12-20T18:56:49.397Z,57.47
2022-12-20T18:59:17.100Z,57.13
2022-12-20T19:01:44.708Z,56.85
2022-12-20T19:04:12.385Z,57.13
2022-12-20T19:06:40.189Z,57.67
2022-12-20T19:09:13.378Z,57.42
2022-12-20T19:11:56.172Z,56.88
2022-12-20T19:14:28.596Z,57.85
2022-12-20T19:16:56.220Z,57.00
2022-12-20T19:19:26.597Z,58.45
2022-12-20T19:21:54.185Z,57.05
2022-12-20T19:24:21.843Z,55.72
2022-12-20T19:26:49.739Z,58.60
2022-12-20T19:29:17.350Z,56.67
2022-12-20T19:31:44.965Z,56.78
2022-12-20T19:34:13.219Z,55.00
2022-12-20T19:36:43.433Z,55.33
2022-12-20T19:39:16.947Z,54.83
2022-12-20T19:41:54.978Z,55.63
2022-12-20T19:44:28.023Z,55.40
2022-12-20T19:46:55.764Z,56.13
2022-12-20T19:49:23.677Z,58.13
2022-12-20T19:51:51.215Z,59.55
2022-12-20T19:54:18.788Z,56.85
2022-12-20T19:56:46.305Z,57.42
2022-12-20T19:59:14.335Z,55.80
2022-12-20T20:01:42.062Z,57.42
2022-12-20T20:04:12.179Z,57.22
2022-12-20T20:06:39.897Z,55.55
2022-12-20T20:09:07.732Z,54.22
2022-12-20T20:11:35.327Z,53.95
2022-12-20T20:14:04.016Z,54.38
2022-12-20T20:16:32.007Z,55.03
2022-12-20T20:18:59.686Z,56.78
2022-12-20T20:21:27.615Z,56.53
2022-12-20T20:23:55.610Z,55.47
2022-12-20T20:26:26.906Z,56.58
2022-12-20T20:28:54.560Z,56.50
2022-12-20T20:31:22.627Z,55.33
2022-12-20T20:33:50.812Z,57.35
2022-12-20T20:36:21.377Z,56.15
2022-12-20T20:38:50.291Z,56.97
2022-12-20T20:41:18.972Z,54.30
2022-12-20T20:43:52.231Z,55.45
2022-12-20T20:46:20.043Z,55.97
2022-12-20T20:48:47.904Z,56.10
2022-12-20T20:51:15.773Z,55.08
2022-12-20T20:53:46.512Z,55.83
2022-12-20T20:56:14.180Z,53.92
2022-12-20T20:58:42.761Z,53.92
2022-12-20T21:01:11.268Z,52.33
2022-12-20T21:03:40.244Z,53.03
2022-12-20T21:08:56.925Z,51.70
2022-12-20T21:11:32.847Z,52.83
2022-12-20T21:14:00.776Z,52.53
2022-12-20T21:16:29.837Z,51.10
2022-12-20T21:18:58.942Z,50.30
2022-12-20T21:21:26.915Z,52.67
2022-12-20T21:23:55.110Z,50.72
2022-12-20T21:26:30.197Z,50.72
2022-12-20T21:29:01.359Z,52.15
2022-12-20T21:31:29.189Z,52.55
2022-12-20T21:33:57.389Z,51.35
2022-12-20T21:36:25.588Z,51.50
2022-12-20T21:38:55.917Z,52.65
2022-12-20T21:45:12.104Z,51.53
2022-12-20T21:47:42.866Z,51.15
2022-12-20T21:50:10.737Z,52.45
2022-12-20T21:52:40.074Z,53.33
2022-12-20T21:55:08.151Z,52.45
2022-12-20T21:57:35.911Z,52.15
2022-12-20T22:00:05.035Z,51.97
2022-12-20T22:02:36.048Z,53.67
2022-12-20T22:05:03.918Z,50.70
2022-12-20T22:07:33.775Z,51.80
2022-12-20T22:10:01.491Z,54.10
2022-12-20T22:12:29.157Z,51.35
2022-12-20T22:14:56.795Z,51.20
2022-12-20T22:17:26.714Z,49.85
2022-12-20T22:19:54.238Z,51.55
2022-12-20T22:22:22.006Z,50.95
2022-12-20T22:24:49.592Z,50.28
2022-12-20T22:27:17.252Z,50.92
2022-12-20T22:29:44.823Z,52.20
2022-12-20T22:32:12.625Z,49.72
2022-12-20T22:34:40.320Z,49.88
2022-12-20T22:37:07.898Z,52.83
2022-12-20T22:39:35.553Z,52.88
2022-12-20T22:42:03.208Z,51.67
2022-12-20T22:44:35.951Z,50.05
2022-12-20T22:47:03.571Z,50.00
2022-12-20T22:49:31.183Z,51.67
2022-12-20T22:52:06.816Z,49.70
2022-12-20T22:54:37.491Z,53.33
2022-12-20T22:57:05.046Z,52.03
2022-12-20T22:59:34.681Z,51.58
2022-12-20T23:02:02.467Z,51.60
2022-12-20T23:04:30.175Z,49.38
2022-12-20T23:06:57.852Z,49.85
2022-12-20T23:09:26.447Z,50.20
2022-12-20T23:12:12.646Z,48.88
2022-12-20T23:15:03.829Z,52.47
2022-12-20T23:17:32.817Z,52.78
2022-12-20T23:20:18.451Z,51.85
2022-12-20T23:22:50.941Z,52.50
2022-12-20T23:25:29.392Z,51.47
2022-12-20T23:27:59.781Z,51.00
2022-12-20T23:30:28.087Z,49.55
2022-12-20T23:32:56.283Z,50.55
2022-12-20T23:35:56.497Z,50.50
2022-12-20T23:38:24.076Z,53.78
2022-12-20T23:40:51.834Z,54.42
2022-12-20T23:43:19.657Z,52.28
2022-12-20T23:45:47.356Z,51.63
2022-12-20T23:48:17.652Z,53.13
2022-12-20T23:50:45.500Z,53.40
2022-12-20T23:53:13.037Z,49.92
2022-12-20T23:55:40.656Z,54.05
2022-12-20T23:58:08.252Z,50.88
